createdAt,value
2023-01-11T00:00:31.086Z,4.32
2023-01-11T00:03:00.319Z,4.47
2023-01-11T00:05:29.124Z,5.28
2023-01-11T00:07:58.849Z,5.38
2023-01-11T00:10:27.315Z,5.03
2023-01-11T00:12:57.430Z,5.40
2023-01-11T00:15:25.942Z,4.22
2023-01-11T00:17:54.444Z,5.05
2023-01-11T00:20:23.189Z,5.38
2023-01-11T00:22:51.730Z,5.05
2023-01-11T00:25:20.489Z,4.50
2023-01-11T00:27:49.756Z,4.68
2023-01-11T00:30:20.574Z,5.00
2023-01-11T00:32:49.190Z,4.28
2023-01-11T00:35:17.958Z,4.03
2023-01-11T00:37:46.375Z,4.65
2023-01-11T00:40:15.452Z,5.03
2023-01-11T00:43:01.344Z,5.68
2023-01-11T00:45:49.649Z,4.28
2023-01-11T00:48:18.247Z,4.40
2023-01-11T00:50:46.795Z,4.00
2023-01-11T00:53:15.740Z,3.58
2023-01-11T00:55:44.360Z,3.47
2023-01-11T00:58:12.878Z,3.58
2023-01-11T01:00:42.761Z,3.33
2023-01-11T01:03:11.361Z,3.00
2023-01-11T01:05:40.196Z,3.30
2023-01-11T01:08:08.749Z,3.38
2023-01-11T01:10:37.251Z,2.83
2023-01-11T01:13:23.196Z,2.95
2023-01-11T01:15:58.303Z,3.13
2023-01-11T01:18:26.962Z,2.58
2023-01-11T01:20:55.441Z,2.63
2023-01-11T01:23:24.094Z,2.50
2023-01-11T01:25:52.701Z,2.60
2023-01-11T01:28:22.410Z,3.38
2023-01-11T01:30:55.444Z,3.15
2023-01-11T01:33:24.642Z,3.08
2023-01-11T01:35:53.168Z,2.55
2023-01-11T01:38:21.612Z,2.83
2023-01-11T01:40:50.175Z,2.45
2023-01-11T01:43:19.558Z,2.55
2023-01-11T01:45:50.176Z,2.13
2023-01-11T01:48:25.634Z,1.90
2023-01-11T01:50:57.230Z,1.63
2023-01-11T01:53:31.950Z,1.77
2023-01-11T01:56:03.702Z,1.80
2023-01-11T01:58:40.399Z,2.30
2023-01-11T02:01:22.954Z,1.85
2023-01-11T02:03:54.537Z,1.40
2023-01-11T02:06:24.857Z,1.48
2023-01-11T02:09:01.466Z,1.98
2023-01-11T02:11:32.896Z,1.60
2023-01-11T02:14:05.220Z,1.50
2023-01-11T02:16:34.014Z,1.63
2023-01-11T02:19:04.996Z,1.70
2023-01-11T02:21:44.797Z,1.52
2023-01-11T02:24:39.059Z,1.13
2023-01-11T02:27:30.262Z,1.70
2023-01-11T02:30:16.010Z,1.40
2023-01-11T02:32:57.993Z,1.70
2023-01-11T02:35:37.170Z,1.95
2023-01-11T02:38:11.965Z,2.20
2023-01-11T02:40:52.317Z,2.50
2023-01-11T02:43:46.260Z,1.80
2023-01-11T02:46:23.588Z,2.78
2023-01-11T02:49:00.506Z,3.03
2023-01-11T02:51:36.885Z,2.42
2023-01-11T02:54:08.646Z,2.33
2023-01-11T02:56:40.426Z,2.63
2023-01-11T02:59:12.299Z,2.58
2023-01-11T03:01:51.090Z,2.08
2023-01-11T03:04:28.101Z,1.67
2023-01-11T03:07:12.452Z,2.47
2023-01-11T03:09:52.693Z,2.17
2023-01-11T03:12:55.098Z,2.90
2023-01-11T03:15:48.489Z,2.03
2023-01-11T03:18:31.719Z,2.10
2023-01-11T03:21:09.021Z,2.15
2023-01-11T03:23:47.760Z,1.80
2023-01-11T03:26:25.439Z,2.53
2023-01-11T03:29:02.225Z,2.10
2023-01-11T03:31:36.412Z,1.80
2023-01-11T03:34:16.167Z,1.90
2023-01-11T03:36:53.883Z,2.22
2023-01-11T03:39:28.675Z,2.17
2023-01-11T03:42:01.585Z,2.00
2023-01-11T03:44:35.256Z,2.08
2023-01-11T03:47:08.344Z,2.03
2023-01-11T03:49:42.811Z,2.22
2023-01-11T03:52:16.014Z,1.58
2023-01-11T03:54:45.784Z,2.10
2023-01-11T03:57:20.104Z,2.47
2023-01-11T03:59:49.932Z,2.33
2023-01-11T04:02:20.267Z,3.05
2023-01-11T04:04:50.687Z,3.13
2023-01-11T04:07:19.734Z,3.30
2023-01-11T04:09:48.705Z,2.92
2023-01-11T04:12:18.168Z,2.67
2023-01-11T04:14:47.103Z,2.80
2023-01-11T04:17:15.883Z,3.25
2023-01-11T04:19:45.003Z,2.75
2023-01-11T04:22:15.592Z,2.85
2023-01-11T04:24:44.441Z,3.47
2023-01-11T04:27:13.864Z,3.20
2023-01-11T04:29:43.184Z,2.80
2023-01-11T04:32:12.067Z,2.88
2023-01-11T04:34:41.006Z,3.22
2023-01-11T04:37:09.910Z,3.70
2023-01-11T04:39:40.140Z,3.63
2023-01-11T04:42:19.925Z,3.47
2023-01-11T04:44:49.450Z,3.65
2023-01-11T04:47:19.203Z,3.30
2023-01-11T04:49:48.271Z,3.63
2023-01-11T04:52:19.061Z,4.28
2023-01-11T04:54:49.562Z,3.65
2023-01-11T04:57:18.624Z,3.88
2023-01-11T04:59:47.876Z,3.75
2023-01-11T05:02:17.242Z,3.70
2023-01-11T05:04:46.304Z,3.78
2023-01-11T05:07:15.141Z,3.58
2023-01-11T05:09:44.245Z,3.88
2023-01-11T05:12:14.679Z,3.75
2023-01-11T05:14:43.495Z,3.50
2023-01-11T05:17:15.602Z,3.75
2023-01-11T05:19:44.768Z,3.42
2023-01-11T05:22:13.660Z,3.83
2023-01-11T05:24:42.389Z,3.28
2023-01-11T05:27:11.137Z,3.63
2023-01-11T05:29:41.468Z,3.63
2023-01-11T05:32:12.444Z,3.75
2023-01-11T05:34:41.389Z,4.18
2023-01-11T05:37:10.061Z,3.13
2023-01-11T05:39:38.913Z,4.18
2023-01-11T05:42:07.674Z,4.13
2023-01-11T05:44:53.525Z,3.65
2023-01-11T05:47:27.049Z,3.83
2023-01-11T05:49:56.253Z,3.92
2023-01-11T05:52:24.749Z,3.58
2023-01-11T05:54:53.707Z,4.45
2023-01-11T05:57:22.479Z,3.60
2023-01-11T05:59:51.217Z,3.65
2023-01-11T06:02:20.049Z,3.17
2023-01-11T06:04:50.347Z,3.60
2023-01-11T06:07:19.164Z,3.90
2023-01-11T06:09:47.981Z,3.65
2023-01-11T06:12:16.896Z,3.40
2023-01-11T06:14:45.981Z,4.05
2023-01-11T06:17:14.858Z,4.30
2023-01-11T06:19:44.549Z,4.30
2023-01-11T06:22:14.873Z,4.53
2023-01-11T06:24:43.848Z,4.80
2023-01-11T06:27:12.792Z,4.38
2023-01-11T06:29:41.619Z,5.07
2023-01-11T06:32:10.260Z,4.93
2023-01-11T06:34:39.327Z,5.32
2023-01-11T06:37:07.942Z,5.80
2023-01-11T06:39:38.223Z,6.20
2023-01-11T06:42:06.926Z,6.55
2023-01-11T06:44:36.293Z,6.50
2023-01-11T06:47:05.003Z,7.15
2023-01-11T06:49:33.854Z,8.18
2023-01-11T06:52:02.734Z,7.63
2023-01-11T06:54:31.584Z,7.28
2023-01-11T06:57:02.114Z,6.82
2023-01-11T06:59:31.283Z,8.13
2023-01-11T07:02:00.874Z,7.97
2023-01-11T07:04:32.966Z,7.60
2023-01-11T07:07:02.411Z,7.18
2023-01-11T07:09:31.608Z,7.57
2023-01-11T07:12:02.071Z,7.47
2023-01-11T07:14:30.881Z,7.85
2023-01-11T07:17:00.061Z,8.05
2023-01-11T07:19:29.226Z,8.15
2023-01-11T07:21:58.083Z,7.53
2023-01-11T07:24:26.868Z,7.57
2023-01-11T07:26:56.473Z,8.80
2023-01-11T07:29:27.159Z,8.65
2023-01-11T07:31:56.169Z,7.82
2023-01-11T07:34:26.183Z,8.88
2023-01-11T07:36:55.033Z,9.48
2023-01-11T07:39:34.838Z,8.90
2023-01-11T07:42:30.090Z,8.30
2023-01-11T07:45:00.407Z,8.52
2023-01-11T07:47:29.433Z,9.43
2023-01-11T07:49:58.368Z,9.00
2023-01-11T07:52:27.159Z,9.35
2023-01-11T07:54:56.048Z,8.88
2023-01-11T07:57:24.784Z,10.20
2023-01-11T07:59:53.587Z,9.05
2023-01-11T08:02:23.898Z,10.45
2023-01-11T08:04:52.844Z,9.20
2023-01-11T08:07:21.708Z,10.90
2023-01-11T08:09:50.533Z,11.13
2023-01-11T08:12:36.671Z,9.57
2023-01-11T08:15:06.447Z,10.20
2023-01-11T08:17:36.887Z,11.00
2023-01-11T08:20:06.270Z,10.35
2023-01-11T08:22:35.534Z,11.15
2023-01-11T08:25:04.387Z,10.18
2023-01-11T08:27:33.172Z,11.18
2023-01-11T08:30:02.066Z,11.02
2023-01-11T08:32:30.773Z,11.27
2023-01-11T08:35:01.106Z,11.10
2023-01-11T08:37:30.016Z,9.93
2023-01-11T08:39:58.971Z,10.20
2023-01-11T08:42:27.847Z,11.38
2023-01-11T08:44:56.684Z,11.65
2023-01-11T08:47:25.524Z,10.80
2023-01-11T08:49:54.393Z,10.23
2023-01-11T08:52:24.547Z,10.90
2023-01-11T08:54:53.203Z,10.55
2023-01-11T08:57:22.405Z,10.82
2023-01-11T08:59:51.358Z,9.60
2023-01-11T09:02:20.285Z,10.57
2023-01-11T09:04:48.929Z,10.70
2023-01-11T09:07:17.585Z,10.80
2023-01-11T09:09:47.925Z,10.40
2023-01-11T09:12:16.694Z,10.50
2023-01-11T09:14:45.704Z,9.82
2023-01-11T09:17:14.552Z,10.90
2023-01-11T09:19:43.372Z,10.73
2023-01-11T09:22:12.201Z,10.50
2023-01-11T09:24:40.973Z,10.65
2023-01-11T09:27:11.986Z,10.77
2023-01-11T09:29:40.981Z,11.13
2023-01-11T09:32:09.752Z,11.02
2023-01-11T09:34:39.429Z,10.73
2023-01-11T09:37:08.265Z,10.43
2023-01-11T09:39:37.396Z,9.95
2023-01-11T09:42:29.586Z,10.77
2023-01-11T09:45:03.403Z,10.50
2023-01-11T09:47:36.929Z,9.10
2023-01-11T09:50:13.142Z,10.43
2023-01-11T09:52:46.531Z,8.88
2023-01-11T09:55:23.207Z,8.70
2023-01-11T09:58:16.711Z,8.80
2023-01-11T10:00:54.220Z,8.55
2023-01-11T10:04:13.227Z,8.50
2023-01-11T10:06:53.129Z,8.65
2023-01-11T10:18:41.722Z,8.07
2023-01-11T10:19:12.311Z,7.68
2023-01-11T10:21:44.573Z,7.32
2023-01-11T10:24:21.106Z,7.90
2023-01-11T10:26:57.004Z,8.13
2023-01-11T10:29:50.298Z,8.07
2023-01-11T10:32:40.966Z,8.40
2023-01-11T10:35:30.146Z,9.55
2023-01-11T10:38:23.492Z,8.18
2023-01-11T10:41:16.364Z,7.63
2023-01-11T10:43:49.322Z,7.65
2023-01-11T10:46:21.580Z,7.88
2023-01-11T10:49:09.879Z,7.93
2023-01-11T10:51:44.590Z,7.85
2023-01-11T10:54:16.945Z,9.20
2023-01-11T10:57:04.725Z,8.50
2023-01-11T10:59:53.196Z,9.00
2023-01-11T11:02:36.562Z,9.85
2023-01-11T11:05:20.992Z,8.93
2023-01-11T11:07:57.689Z,9.18
2023-01-11T11:10:33.913Z,10.35
2023-01-11T11:13:14.007Z,9.73
2023-01-11T11:15:50.794Z,8.73
2023-01-11T11:18:19.673Z,8.15
2023-01-11T11:20:49.901Z,9.07
2023-01-11T11:23:25.215Z,9.50
2023-01-11T11:26:00.133Z,8.88
2023-01-11T11:28:31.202Z,8.82
2023-01-11T11:33:36.435Z,8.88
2023-01-11T11:36:09.083Z,8.93
2023-01-11T11:38:39.978Z,8.07
2023-01-11T11:41:10.526Z,8.38
2023-01-11T11:43:40.798Z,9.55
2023-01-11T11:46:25.182Z,9.03
2023-01-11T11:49:13.675Z,8.45
2023-01-11T11:51:45.323Z,9.00
2023-01-11T11:54:22.713Z,9.25
2023-01-11T11:56:52.069Z,8.32
2023-01-11T11:59:23.913Z,9.02
2023-01-11T12:02:01.389Z,9.23
2023-01-11T12:04:48.110Z,9.43
2023-01-11T12:07:21.384Z,9.98
2023-01-11T12:09:52.366Z,9.70
2023-01-11T12:12:27.358Z,9.15
2023-01-11T12:15:23.291Z,11.05
2023-01-11T12:17:52.677Z,11.25
2023-01-11T12:20:44.953Z,10.18
2023-01-11T12:23:21.825Z,10.05
2023-01-11T12:26:13.825Z,10.30
2023-01-11T12:29:15.722Z,10.65
2023-01-11T12:31:57.205Z,11.07
2023-01-11T12:34:40.083Z,10.75
2023-01-11T12:37:18.350Z,12.00
2023-01-11T12:39:56.769Z,10.30
2023-01-11T12:43:06.352Z,11.90
2023-01-11T12:45:46.402Z,10.70
2023-01-11T12:48:46.741Z,10.98
2023-01-11T12:51:25.594Z,9.07
2023-01-11T12:54:06.593Z,10.90
2023-01-11T12:57:00.251Z,9.95
2023-01-11T12:59:44.827Z,11.48
2023-01-11T13:02:32.907Z,10.98
2023-01-11T13:05:14.549Z,9.77
2023-01-11T13:08:01.106Z,10.05
2023-01-11T13:10:41.491Z,9.63
2023-01-11T13:13:16.707Z,10.60
2023-01-11T13:15:54.323Z,11.48
2023-01-11T13:18:31.669Z,11.90
2023-01-11T13:21:08.712Z,11.77
2023-01-11T13:24:05.631Z,11.23
2023-01-11T13:26:38.835Z,11.43
2023-01-11T13:29:16.274Z,11.38
2023-01-11T13:31:48.163Z,11.20
2023-01-11T13:34:24.419Z,9.68
2023-01-11T13:36:59.253Z,10.77
2023-01-11T13:39:34.243Z,10.10
2023-01-11T13:42:11.267Z,10.05
2023-01-11T13:44:47.931Z,10.50
2023-01-11T13:47:20.841Z,10.57
2023-01-11T13:50:00.284Z,9.98
2023-01-11T13:52:45.793Z,9.48
2023-01-11T13:55:25.948Z,9.75
2023-01-11T13:58:01.786Z,9.57
2023-01-11T14:00:37.715Z,8.90
2023-01-11T14:03:18.066Z,10.18
2023-01-11T14:05:54.280Z,8.85
2023-01-11T14:08:50.628Z,9.25
2023-01-11T14:11:27.405Z,9.07
2023-01-11T14:14:23.613Z,8.50
2023-01-11T14:17:36.747Z,9.05
2023-01-11T14:20:14.516Z,9.55
2023-01-11T14:22:51.513Z,9.60
2023-01-11T14:25:26.116Z,9.52
2023-01-11T14:28:22.323Z,9.60
2023-01-11T14:31:12.305Z,9.13
2023-01-11T14:34:11.222Z,8.20
2023-01-11T14:37:15.512Z,9.32
2023-01-11T14:40:01.351Z,8.23
2023-01-11T14:43:19.061Z,9.43
2023-01-11T14:46:05.476Z,9.00
2023-01-11T14:48:44.313Z,9.45
2023-01-11T14:51:34.295Z,9.43
2023-01-11T14:54:09.504Z,9.27
2023-01-11T14:56:55.973Z,8.93
2023-01-11T14:59:40.000Z,9.63
2023-01-11T15:02:16.425Z,9.32
2023-01-11T15:05:05.344Z,10.00
2023-01-11T15:07:41.839Z,9.63
2023-01-11T15:10:45.995Z,8.48
2023-01-11T15:13:19.860Z,8.88
2023-01-11T15:16:06.060Z,9.93
2023-01-11T15:18:45.952Z,8.95
2023-01-11T15:21:19.634Z,8.85
2023-01-11T15:23:52.211Z,9.00
2023-01-11T15:26:22.532Z,9.88
2023-01-11T15:28:53.353Z,9.48
2023-01-11T15:31:34.581Z,9.80
2023-01-11T15:34:07.265Z,9.43
2023-01-11T15:37:00.149Z,9.63
2023-01-11T15:39:40.537Z,8.55
2023-01-11T15:42:38.099Z,8.85
2023-01-11T15:46:16.018Z,8.88
2023-01-11T15:49:12.632Z,9.07
2023-01-11T15:52:07.034Z,9.48
2023-01-11T15:54:56.215Z,10.02
2023-01-11T15:57:55.794Z,9.63
2023-01-11T16:01:06.416Z,8.90
2023-01-11T16:04:03.718Z,9.33
2023-01-11T16:06:43.038Z,9.13
2023-01-11T16:09:35.280Z,9.10
2023-01-11T16:12:25.525Z,9.60
2023-01-11T16:15:33.852Z,10.07
2023-01-11T16:18:13.339Z,8.98
2023-01-11T16:20:46.091Z,9.82
2023-01-11T16:23:22.830Z,9.63
2023-01-11T16:25:57.667Z,9.75
2023-01-11T16:28:29.154Z,10.18
2023-01-11T16:31:02.367Z,9.10
2023-01-11T16:33:35.593Z,10.10
2023-01-11T16:36:09.242Z,9.35
2023-01-11T16:38:47.394Z,9.95
2023-01-11T16:41:18.188Z,10.07
2023-01-11T16:43:55.687Z,10.68
2023-01-11T16:47:00.429Z,10.38
2023-01-11T16:49:29.247Z,9.32
2023-01-11T16:52:00.743Z,10.38
2023-01-11T16:54:33.872Z,10.82
2023-01-11T16:57:04.018Z,9.23
2023-01-11T16:59:35.834Z,10.75
2023-01-11T17:02:25.360Z,9.80
2023-01-11T17:04:56.501Z,10.18
2023-01-11T17:07:28.209Z,9.40
2023-01-11T17:10:17.681Z,10.38
2023-01-11T17:12:50.449Z,10.55
2023-01-11T17:15:33.615Z,9.10
2023-01-11T17:18:13.752Z,10.15
2023-01-11T17:20:42.797Z,9.90
2023-01-11T17:23:16.558Z,9.55
2023-01-11T17:25:45.450Z,10.82
2023-01-11T17:28:19.582Z,11.05
2023-01-11T17:30:53.766Z,9.98
2023-01-11T17:33:34.614Z,10.60
2023-01-11T17:36:04.268Z,10.85
2023-01-11T17:38:33.254Z,11.05
2023-01-11T17:41:22.996Z,10.82
2023-01-11T17:44:08.992Z,10.80
2023-01-11T17:46:41.720Z,10.77
2023-01-11T17:49:22.491Z,11.68
2023-01-11T17:51:51.543Z,10.55
2023-01-11T17:54:21.701Z,11.70
2023-01-11T17:56:57.440Z,10.60
2023-01-11T17:59:28.017Z,10.88
2023-01-11T18:01:59.865Z,11.25
2023-01-11T18:04:29.538Z,11.43
2023-01-11T18:07:07.358Z,10.73
2023-01-11T18:09:41.615Z,11.45
2023-01-11T18:12:15.584Z,11.57
2023-01-11T18:14:50.488Z,10.88
2023-01-11T18:17:36.330Z,11.00
2023-01-11T18:20:38.931Z,11.23
2023-01-11T18:23:23.365Z,10.50
2023-01-11T18:26:12.144Z,10.27
2023-01-11T18:28:40.793Z,10.23
2023-01-11T18:31:09.401Z,10.43
2023-01-11T18:33:42.013Z,11.93
2023-01-11T18:36:20.740Z,12.27
2023-01-11T18:38:49.413Z,10.95
2023-01-11T18:41:44.919Z,10.68
2023-01-11T18:44:14.164Z,10.10
2023-01-11T18:46:42.938Z,11.23
2023-01-11T18:49:13.166Z,11.20
2023-01-11T18:51:42.004Z,10.93
2023-01-11T18:54:18.048Z,11.40
2023-01-11T18:56:47.730Z,11.60
2023-01-11T18:59:16.438Z,10.50
2023-01-11T19:01:56.633Z,11.20
2023-01-11T19:04:35.746Z,10.75
2023-01-11T19:07:04.822Z,10.98
2023-01-11T19:09:33.455Z,11.10
2023-01-11T19:12:02.336Z,10.38
2023-01-11T19:14:30.995Z,10.52
2023-01-11T19:16:59.814Z,10.15
2023-01-11T19:22:00.686Z,10.70
2023-01-11T19:24:29.652Z,10.23
2023-01-11T19:26:58.452Z,11.13
2023-01-11T19:29:27.498Z,10.75
2023-01-11T19:32:04.235Z,12.00
2023-01-11T19:34:35.193Z,10.88
2023-01-11T19:37:05.458Z,10.75
2023-01-11T19:39:34.773Z,11.80
2023-01-11T19:42:03.438Z,10.43
2023-01-11T19:44:33.737Z,11.80
2023-01-11T19:47:11.237Z,11.60
2023-01-11T19:49:41.570Z,11.55
2023-01-11T19:52:14.308Z,11.15
2023-01-11T19:54:43.614Z,10.57
2023-01-11T19:57:20.869Z,12.52
2023-01-11T19:59:50.845Z,11.02
2023-01-11T20:02:23.219Z,11.60
2023-01-11T20:04:52.004Z,11.40
2023-01-11T20:07:22.314Z,11.32
2023-01-11T20:09:50.951Z,11.70
2023-01-11T20:12:19.655Z,12.60
2023-01-11T20:14:48.352Z,12.77
2023-01-11T20:17:21.137Z,11.63
2023-01-11T20:19:54.710Z,12.80
2023-01-11T20:22:26.052Z,12.48
2023-01-11T20:24:57.575Z,13.68
2023-01-11T20:27:26.260Z,12.73
2023-01-11T20:29:55.076Z,14.65
2023-01-11T20:32:42.157Z,12.68
2023-01-11T20:35:12.237Z,13.80
2023-01-11T20:37:45.541Z,13.23
2023-01-11T20:40:14.796Z,13.38
2023-01-11T20:42:43.706Z,12.38
2023-01-11T20:45:13.082Z,12.85
2023-01-11T20:47:41.860Z,13.38
2023-01-11T20:50:14.239Z,14.48
2023-01-11T20:52:44.956Z,14.20
2023-01-11T20:55:13.815Z,14.27
2023-01-11T20:57:42.770Z,13.55
2023-01-11T21:00:13.967Z,13.30
2023-01-11T21:02:42.708Z,13.10
2023-01-11T21:05:21.805Z,13.38
2023-01-11T21:07:54.204Z,13.90
2023-01-11T21:10:22.786Z,13.70
2023-01-11T21:12:52.907Z,13.38
2023-01-11T21:15:21.823Z,14.65
2023-01-11T21:17:50.536Z,13.07
2023-01-11T21:20:19.401Z,11.85
2023-01-11T21:22:48.063Z,11.73
2023-01-11T21:25:18.697Z,11.02
2023-01-11T21:27:47.385Z,12.52
2023-01-11T21:30:16.405Z,11.70
2023-01-11T21:32:45.083Z,10.80
2023-01-11T21:35:14.066Z,11.57
2023-01-11T21:37:42.716Z,11.45
2023-01-11T21:40:14.333Z,11.55
2023-01-11T21:42:44.966Z,11.00
2023-01-11T21:45:13.844Z,10.48
2023-01-11T21:47:45.598Z,10.27
2023-01-11T21:50:14.385Z,10.27
2023-01-11T21:52:43.090Z,10.32
2023-01-11T21:55:12.583Z,10.68
2023-01-11T21:57:41.143Z,10.02
2023-01-11T22:00:14.885Z,9.80
2023-01-11T22:02:43.589Z,9.95
2023-01-11T22:05:12.307Z,10.38
2023-01-11T22:07:43.707Z,9.93
2023-01-11T22:10:13.146Z,10.07
2023-01-11T22:12:41.863Z,10.38
2023-01-11T22:15:12.717Z,10.25
2023-01-11T22:17:41.523Z,10.73
2023-01-11T22:20:11.628Z,9.85
2023-01-11T22:22:40.426Z,10.13
2023-01-11T22:25:09.784Z,10.23
2023-01-11T22:27:38.585Z,10.48
2023-01-11T22:30:08.529Z,10.10
2023-01-11T22:32:38.914Z,10.20
2023-01-11T22:35:08.558Z,10.63
2023-01-11T22:37:37.350Z,11.35
2023-01-11T22:40:06.766Z,10.82
2023-01-11T22:42:35.341Z,11.25
2023-01-11T22:45:05.258Z,10.45
2023-01-11T22:47:34.089Z,11.05
2023-01-11T22:50:04.506Z,11.43
2023-01-11T22:52:33.567Z,10.45
2023-01-11T22:55:02.108Z,11.05
2023-01-11T22:57:30.828Z,11.60
2023-01-11T22:59:59.406Z,11.23
2023-01-11T23:02:28.167Z,11.05
2023-01-11T23:04:56.883Z,11.27
2023-01-11T23:07:26.918Z,11.70
2023-01-11T23:09:55.487Z,10.85
2023-01-11T23:12:41.348Z,11.43
2023-01-11T23:15:11.274Z,11.35
2023-01-11T23:17:39.803Z,11.55
2023-01-11T23:20:09.405Z,11.52
2023-01-11T23:22:39.449Z,11.88
2023-01-11T23:25:09.314Z,11.98
2023-01-11T23:27:37.799Z,10.80
2023-01-11T23:30:07.466Z,11.80
2023-01-11T23:32:36.066Z,11.63
2023-01-11T23:35:05.558Z,11.02
2023-01-11T23:37:34.121Z,11.48
2023-01-11T23:40:04.282Z,11.00
2023-01-11T23:42:31.911Z,10.77
2023-01-11T23:45:00.489Z,10.90
2023-01-11T23:47:29.977Z,11.25
2023-01-11T23:50:00.615Z,12.02
2023-01-11T23:52:31.233Z,11.60
2023-01-11T23:55:00.774Z,10.55
2023-01-11T23:57:30.974Z,11.38
2023-01-11T23:59:59.700Z,11.30
